Time;durP1;ratioP1;P1;durP2;ratioP2;P2;SDS_P1;SDS_P2;PMS_P1;PMS_P2;Temp;Humidity;BMP_temperature;BMP_pressure;BME280_temperature;BME280_humidity;BME280_pressure;Samples;Min_cycle;Max_cycle;Signal;HPM_P1;HPM_P2
2022/12/15 00:39:04;;;;;;;48.30;21.83;;;;;;;-8.57;96.69;99630.38;5171219;28;20033;-74
2022/12/15 00:41:35;;;;;;;49.13;21.05;;;;;;;-8.47;97.86;99632.28;5179859;28;20046;-72
2022/12/15 00:44:05;;;;;;;48.47;20.70;;;;;;;-8.40;97.61;99639.22;5176926;28;20046;-72
2022/12/15 00:46:53;;;;;;;53.40;21.65;;;;;;;-8.48;97.06;99636.50;5171125;28;20472;-73
2022/12/15 01:20:33;;;;;;;45.85;18.77;;;;;;;-8.72;95.64;99655.31;5169557;28;20077;-73
2022/12/15 01:23:03;;;;;;;41.08;17.80;;;;;;;-8.74;95.80;99636.69;5177518;28;20021;-72
2022/12/15 01:25:37;;;;;;;37.63;17.50;;;;;;;-8.64;96.05;99654.69;5170611;28;20034;-72
2022/12/15 01:28:07;;;;;;;43.90;19.37;;;;;;;-8.60;96.13;99663.19;5180206;28;20029;-72
2022/12/15 01:30:38;;;;;;;39.55;17.95;;;;;;;-8.32;95.95;99652.91;5174915;28;20065;-72
2022/12/15 01:33:08;;;;;;;42.17;19.13;;;;;;;-8.42;94.38;99654.38;5169385;28;20467;-73
2022/12/15 01:35:38;;;;;;;41.40;18.13;;;;;;;-8.52;94.70;99654.94;5164568;28;20375;-73
2022/12/15 01:38:09;;;;;;;44.72;18.88;;;;;;;-8.34;95.17;99652.03;5180201;28;20032;-75
2022/12/15 01:40:45;;;;;;;43.47;18.95;;;;;;;-8.44;95.21;99660.19;5180311;28;20077;-74
2022/12/15 01:43:22;;;;;;;40.88;18.65;;;;;;;-8.50;95.02;99665.13;5177313;28;20026;-72
2022/12/15 01:46:00;;;;;;;42.33;18.30;;;;;;;-8.48;95.11;99666.03;5168356;28;20109;-72
2022/12/15 01:48:58;;;;;;;39.35;17.45;;;;;;;-8.50;94.12;99667.66;5172943;28;20089;-73
2022/12/15 01:51:34;;;;;;;37.40;16.83;;;;;;;-8.46;95.20;99659.31;5169213;28;20104;-72
2022/12/15 01:54:19;;;;;;;45.58;18.77;;;;;;;-8.54;94.28;99661.66;5175701;28;20057;-73
2022/12/15 01:56:53;;;;;;;54.15;22.35;;;;;;;-8.67;94.50;99666.38;5171425;28;20565;-73
2022/12/15 01:59:30;;;;;;;42.97;17.88;;;;;;;-8.74;95.87;99672.13;5172259;28;20045;-73
2022/12/15 02:02:01;;;;;;;41.22;18.30;;;;;;;-8.63;96.76;99676.63;5181423;28;20040;-72
2022/12/15 02:04:33;;;;;;;41.97;17.95;;;;;;;-8.51;96.68;99676.06;5171175;28;20034;-73
2022/12/15 02:07:03;;;;;;;38.92;17.55;;;;;;;-8.69;95.80;99680.69;5177641;28;20033;-72
2022/12/15 02:09:33;;;;;;;41.95;17.27;;;;;;;-8.62;95.71;99678.34;5170814;28;20030;-75
2022/12/15 02:12:27;;;;;;;39.15;16.92;;;;;;;-8.73;94.26;99674.69;5170848;28;20030;-73
2022/12/15 02:15:18;;;;;;;37.40;15.82;;;;;;;-8.49;95.40;99684.56;5176020;28;20057;-73
2022/12/15 02:18:34;;;;;;;36.72;16.30;;;;;;;-8.79;94.45;99694.78;5175879;28;20052;-72
2022/12/15 02:21:12;;;;;;;37.50;16.55;;;;;;;-8.82;95.10;99697.22;5170241;28;20033;-74
2022/12/15 02:23:55;;;;;;;38.47;16.63;;;;;;;-8.67;95.96;99705.22;5174459;28;20026;-72
2022/12/15 02:26:53;;;;;;;38.08;16.35;;;;;;;-8.55;94.72;99699.63;5169243;28;20030;-72
2022/12/15 02:29:43;;;;;;;52.65;20.25;;;;;;;-8.55;94.53;99699.63;5176464;28;20388;-72
2022/12/15 02:32:19;;;;;;;101.57;30.52;;;;;;;-8.72;94.30;99695.78;5172961;28;20486;-74
2022/12/15 02:35:05;;;;;;;103.60;31.35;;;;;;;-8.56;94.98;99692.84;5172153;28;20026;-72
2022/12/15 02:37:38;;;;;;;50.45;19.80;;;;;;;-8.76;94.03;99699.91;5172717;28;20088;-73
2022/12/15 02:40:09;;;;;;;40.50;16.25;;;;;;;-8.63;94.88;99693.47;5170833;28;20033;-74
2022/12/15 02:42:44;;;;;;;37.60;15.40;;;;;;;-8.44;94.84;99693.13;5171409;28;20120;-74
2022/12/15 02:45:19;;;;;;;41.38;15.40;;;;;;;-8.41;91.76;99693.22;5172759;28;20045;-74
2022/12/15 02:47:59;;;;;;;32.05;14.90;;;;;;;-8.63;90.79;99685.88;5172014;28;20125;-73
2022/12/15 02:50:50;;;;;;;33.10;14.13;;;;;;;-8.69;93.03;99690.81;5175521;28;20400;-75
2022/12/15 02:53:27;;;;;;;32.35;14.23;;;;;;;-8.64;93.79;99692.66;5170691;28;20041;-72
2022/12/15 02:56:07;;;;;;;36.28;14.38;;;;;;;-8.68;95.24;99697.59;5174242;28;20097;-72
2022/12/15 02:59:24;;;;;;;36.25;14.43;;;;;;;-8.64;96.50;99700.25;5171270;28;20026;-73
2022/12/15 03:02:01;;;;;;;41.20;15.07;;;;;;;-8.53;97.16;99703.03;5129042;28;20153;-73
2022/12/15 03:04:32;;;;;;;37.35;15.48;;;;;;;-8.32;97.95;99703.56;5154981;28;20038;-76
2022/12/15 03:07:06;;;;;;;46.97;17.33;;;;;;;-8.38;97.20;99703.41;5167302;28;20045;-73
2022/12/15 03:09:38;;;;;;;42.20;16.10;;;;;;;-8.34;96.87;99721.25;5174119;28;20518;-72
2022/12/15 03:12:09;;;;;;;42.63;16.67;;;;;;;-8.41;96.25;99713.47;5167796;28;20108;-72
2022/12/15 03:14:39;;;;;;;39.85;16.80;;;;;;;-8.27;97.64;99712.97;5169377;28;20046;-72
2022/12/15 03:17:09;;;;;;;37.72;15.20;;;;;;;-8.04;96.87;99710.97;5171049;28;20177;-74
2022/12/15 03:19:40;;;;;;;37.63;15.13;;;;;;;-8.19;95.75;99720.78;5179314;28;20038;-75
2022/12/15 03:22:10;;;;;;;33.85;14.63;;;;;;;-8.38;96.19;99724.50;5173169;28;20032;-73
2022/12/15 03:24:41;;;;;;;37.25;15.10;;;;;;;-8.33;96.55;99717.03;5174390;28;20499;-73
2022/12/15 03:27:11;;;;;;;33.08;14.93;;;;;;;-8.35;96.87;99721.22;5170586;28;20030;-72
2022/12/15 03:29:41;;;;;;;35.03;14.95;;;;;;;-8.31;96.80;99713.75;5165964;28;20387;-72
2022/12/15 03:32:12;;;;;;;33.90;15.27;;;;;;;-8.29;96.27;99723.88;5168543;28;20041;-73
2022/12/15 03:34:42;;;;;;;33.28;14.80;;;;;;;-8.34;96.17;99725.47;5171652;28;20507;-76
2022/12/15 03:37:12;;;;;;;37.35;15.60;;;;;;;-8.42;96.61;99727.78;5169948;28;20494;-73
2022/12/15 03:39:43;;;;;;;43.10;15.30;;;;;;;-8.39;96.89;99716.91;5169502;28;20034;-73
2022/12/15 03:42:13;;;;;;;36.13;14.65;;;;;;;-8.48;95.18;99721.72;5172992;28;20030;-75
2022/12/15 03:44:43;;;;;;;32.90;15.45;;;;;;;-8.53;96.21;99733.41;5172932;28;20041;-74
2022/12/15 03:47:13;;;;;;;36.42;15.63;;;;;;;-8.52;96.31;99730.06;5165197;28;20062;-74
2022/12/15 03:49:44;;;;;;;34.05;14.82;;;;;;;-8.75;95.68;99737.06;5166563;28;20291;-73
2022/12/15 03:52:14;;;;;;;35.88;15.27;;;;;;;-8.66;96.51;99734.78;5169076;28;20026;-74
2022/12/15 03:54:44;;;;;;;32.53;13.75;;;;;;;-8.66;95.92;99744.03;5169024;28;20113;-73
2022/12/15 03:57:15;;;;;;;32.17;13.98;;;;;;;-8.61;96.43;99739.94;5172640;28;20112;-74
2022/12/15 03:59:45;;;;;;;31.95;13.55;;;;;;;-8.71;96.27;99743.06;5169061;28;20029;-73
2022/12/15 04:02:15;;;;;;;33.38;14.13;;;;;;;-8.60;96.77;99740.00;5173842;28;20034;-74
2022/12/15 04:04:47;;;;;;;29.77;14.27;;;;;;;-8.59;96.06;99740.88;5167172;28;20123;-74
2022/12/15 04:07:17;;;;;;;30.98;13.95;;;;;;;-8.56;96.34;99748.53;5159327;28;20492;-73
2022/12/15 04:09:48;;;;;;;42.78;16.33;;;;;;;-8.48;95.65;99757.16;5172831;28;20263;-73
2022/12/15 04:12:18;;;;;;;46.47;18.50;;;;;;;-8.40;96.88;99755.69;5168822;28;20033;-73
2022/12/15 04:14:48;;;;;;;51.10;19.63;;;;;;;-8.17;97.70;99759.63;5171909;28;20019;-74
2022/12/15 04:17:19;;;;;;;46.03;18.40;;;;;;;-8.08;97.24;99760.72;5167651;28;20124;-74
2022/12/15 04:22:43;;;;;;;39.67;16.15;;;;;;;-7.96;96.66;99768.63;5174071;28;20026;-74
2022/12/15 05:33:30;;;;;;;28.90;11.90;;;;;;;-7.58;98.58;99802.44;5174144;28;20089;-75
2022/12/15 05:36:00;;;;;;;24.38;11.00;;;;;;;-7.70;99.62;99803.03;5177622;28;20050;-74
2022/12/15 05:38:31;;;;;;;25.48;10.82;;;;;;;-7.73;100.00;99804.66;5175140;28;20395;-75
2022/12/15 05:41:01;;;;;;;23.65;11.40;;;;;;;-7.67;100.00;99809.84;5178659;28;20040;-75
2022/12/15 05:43:31;;;;;;;25.33;11.90;;;;;;;-7.76;99.94;99795.28;5172777;28;20026;-73
2022/12/15 05:46:03;;;;;;;25.65;11.50;;;;;;;-7.82;100.00;99797.69;5174203;28;20037;-73
2022/12/15 05:48:33;;;;;;;27.05;12.20;;;;;;;-7.79;100.00;99804.47;5176919;28;20526;-73
2022/12/15 05:51:07;;;;;;;26.65;12.75;;;;;;;-7.88;100.00;99810.19;5171453;28;20083;-73
2022/12/15 05:53:39;;;;;;;26.83;12.15;;;;;;;-7.77;100.00;99805.38;5174218;28;20029;-73
2022/12/15 05:56:12;;;;;;;29.60;12.80;;;;;;;-7.64;100.00;99815.00;5171277;28;20467;-73
2022/12/15 05:58:42;;;;;;;28.88;12.90;;;;;;;-7.73;99.66;99817.31;5172393;28;20030;-73
2022/12/15 06:01:15;;;;;;;25.13;12.48;;;;;;;-7.70;99.35;99825.84;5169637;28;20388;-73
2022/12/15 06:03:45;;;;;;;28.95;12.32;;;;;;;-7.70;100.00;99825.84;5171205;28;20072;-73
2022/12/15 06:06:16;;;;;;;32.35;13.70;;;;;;;-7.70;99.52;99820.75;5177632;28;20502;-73
2022/12/15 06:08:47;;;;;;;25.05;12.07;;;;;;;-7.73;99.81;99824.94;5167988;28;20034;-74
2022/12/15 06:11:18;;;;;;;28.50;12.20;;;;;;;-7.62;99.99;99826.03;5175463;28;20113;-70
2022/12/15 06:13:49;;;;;;;25.83;12.27;;;;;;;-7.49;98.68;99828.88;5173763;28;20030;-74
2022/12/15 06:16:21;;;;;;;27.60;11.90;;;;;;;-7.53;98.61;99832.16;5174475;28;20022;-73
2022/12/15 06:18:54;;;;;;;25.17;12.18;;;;;;;-7.46;98.86;99831.50;5168718;28;20498;-73
2022/12/15 06:21:31;;;;;;;26.33;11.65;;;;;;;-7.47;98.54;99841.59;5174319;28;20069;-73
2022/12/15 06:24:04;;;;;;;25.10;11.70;;;;;;;-7.44;98.93;99834.06;5175912;28;20064;-73
2022/12/15 06:26:36;;;;;;;25.88;11.95;;;;;;;-7.44;99.46;99834.94;5173750;28;20172;-74
2022/12/15 06:29:09;;;;;;;29.45;11.80;;;;;;;-7.49;99.26;99836.47;5174376;28;20037;-73
2022/12/15 06:31:41;;;;;;;25.60;12.15;;;;;;;-7.36;100.00;99833.41;5171856;28;20017;-74
2022/12/15 06:34:13;;;;;;;25.40;12.00;;;;;;;-7.35;99.46;99844.44;5179501;28;20037;-72
2022/12/15 06:36:43;;;;;;;22.15;10.52;;;;;;;-7.31;100.00;99858.91;5165662;28;20120;-73
2022/12/15 06:39:15;;;;;;;24.92;11.48;;;;;;;-7.13;100.00;99847.50;5180273;28;20117;-74
2022/12/15 06:41:45;;;;;;;22.05;10.32;;;;;;;-7.02;97.35;99862.13;5175444;28;20034;-73
2022/12/15 06:44:16;;;;;;;24.52;11.13;;;;;;;-7.09;95.01;99859.41;5169093;28;20330;-74
2022/12/15 06:46:46;;;;;;;26.13;10.70;;;;;;;-7.33;94.25;99858.00;5170946;28;20037;-73
2022/12/15 06:49:16;;;;;;;23.40;10.63;;;;;;;-7.34;95.22;99853.75;5164699;28;20026;-73
2022/12/15 06:51:48;;;;;;;21.85;9.98;;;;;;;-7.49;96.62;99873.69;5170192;28;20049;-73
2022/12/15 06:54:18;;;;;;;27.45;10.90;;;;;;;-7.30;97.91;99870.75;5165968;28;20057;-76
2022/12/15 06:56:49;;;;;;;25.50;10.65;;;;;;;-7.42;94.95;99871.31;5168901;28;20030;-74
2022/12/15 06:59:19;;;;;;;22.30;9.65;;;;;;;-7.47;96.59;99875.44;5169559;28;20364;-74
2022/12/15 07:01:49;;;;;;;24.15;10.82;;;;;;;-7.36;95.58;99870.63;5169643;28;20026;-73
2022/12/15 07:04:19;;;;;;;26.27;11.80;;;;;;;-7.52;96.45;99866.00;5169724;28;20073;-73
2022/12/15 07:06:50;;;;;;;25.83;11.85;;;;;;;-7.41;97.60;99870.50;5172476;28;20052;-74
2022/12/15 07:09:20;;;;;;;27.50;11.77;;;;;;;-7.42;95.93;99880.59;5170304;28;20030;-74
2022/12/15 07:11:51;;;;;;;25.02;11.05;;;;;;;-7.61;95.91;99878.44;5168479;28;20037;-75
2022/12/15 07:14:22;;;;;;;24.23;11.07;;;;;;;-7.67;96.08;99875.78;5173645;28;20041;-73
2022/12/15 07:16:53;;;;;;;23.30;11.20;;;;;;;-7.70;96.97;99888.38;5172487;28;20496;-75
2022/12/15 07:19:23;;;;;;;30.83;11.95;;;;;;;-7.58;98.54;99878.50;5165444;28;20077;-74
2022/12/15 07:21:56;;;;;;;24.95;11.43;;;;;;;-7.54;99.23;99882.88;5172648;28;20483;-74
2022/12/15 07:24:26;;;;;;;26.23;11.95;;;;;;;-7.46;99.05;99899.09;5166324;28;20022;-74
2022/12/15 07:26:57;;;;;;;25.42;12.10;;;;;;;-7.36;99.51;99903.59;5170504;28;20037;-74
2022/12/15 07:29:28;;;;;;;31.17;12.38;;;;;;;-7.40;99.00;99906.84;5169763;28;20033;-73
2022/12/15 07:31:59;;;;;;;23.63;10.75;;;;;;;-7.31;98.96;99915.56;5170567;28;20469;-73
2022/12/15 07:34:30;;;;;;;25.67;11.40;;;;;;;-7.21;99.79;99929.34;5170868;28;20435;-74
2022/12/15 07:37:00;;;;;;;22.25;10.35;;;;;;;-7.27;98.67;99934.25;5166431;28;20034;-73
2022/12/15 07:39:30;;;;;;;22.33;10.68;;;;;;;-7.16;99.39;99939.63;5172192;28;20071;-74
2022/12/15 07:42:01;;;;;;;26.60;11.02;;;;;;;-7.14;99.13;99944.75;5177387;28;20037;-72
2022/12/15 07:44:31;;;;;;;22.35;10.30;;;;;;;-7.04;99.20;99937.38;5171032;28;20034;-73
2022/12/15 07:47:01;;;;;;;22.83;10.57;;;;;;;-6.65;98.53;99930.66;5168708;28;20081;-76
2022/12/15 07:49:32;;;;;;;24.55;10.73;;;;;;;-6.36;96.46;99928.72;5166532;28;20029;-76
2022/12/15 07:52:03;;;;;;;24.13;10.15;;;;;;;-5.91;95.17;99929.63;5171522;28;20053;-74
2022/12/15 07:54:33;;;;;;;24.42;10.23;;;;;;;-5.39;92.48;99930.53;5169500;28;20030;-74
2022/12/15 07:57:06;;;;;;;20.60;10.77;;;;;;;-4.74;90.94;99923.09;5169513;28;20034;-74
2022/12/15 07:59:36;;;;;;;22.17;10.77;;;;;;;-4.46;87.56;99926.88;5169707;28;20180;-74
2022/12/15 08:02:09;;;;;;;22.42;11.10;;;;;;;-4.21;87.70;99932.31;5171681;28;20547;-75
2022/12/15 08:04:39;;;;;;;21.85;10.38;;;;;;;-4.13;87.30;99946.00;5169461;28;20022;-71
2022/12/15 08:07:10;;;;;;;18.45;8.93;;;;;;;-4.02;84.43;99939.34;5173277;28;20065;-74
2022/12/15 08:09:41;;;;;;;18.00;9.05;;;;;;;-3.92;83.53;99942.84;5172960;28;20030;-76
2022/12/15 08:12:11;;;;;;;16.80;8.27;;;;;;;-2.60;81.07;99934.69;5176320;28;20026;-74
2022/12/15 08:14:41;;;;;;;18.08;8.52;;;;;;;-3.28;77.14;99943.53;5169924;28;20064;-75
2022/12/15 08:17:12;;;;;;;17.67;9.13;;;;;;;-2.66;78.03;99938.06;5175081;28;20053;-72
2022/12/15 08:19:42;;;;;;;18.67;8.68;;;;;;;-2.84;77.64;99945.59;5177068;28;20100;-73
2022/12/15 08:22:14;;;;;;;19.48;8.90;;;;;;;-2.65;77.70;99944.88;5171409;28;20022;-74
2022/12/15 08:24:44;;;;;;;21.35;11.10;;;;;;;-1.96;78.01;99950.34;5172259;28;20041;-74
2022/12/15 08:27:15;;;;;;;19.23;10.02;;;;;;;-1.99;78.88;99950.34;5170715;28;20057;-76
2022/12/15 08:29:45;;;;;;;23.17;11.07;;;;;;;-1.84;77.65;99940.19;5172157;28;20513;-74
2022/12/15 08:32:15;;;;;;;23.60;10.77;;;;;;;-2.10;77.82;99941.78;5167980;28;20088;-75
2022/12/15 08:34:46;;;;;;;27.20;11.48;;;;;;;-2.79;80.41;99949.06;5172350;28;20029;-72
2022/12/15 08:37:16;;;;;;;24.50;10.88;;;;;;;-3.19;79.96;99952.13;5172023;28;20048;-75
2022/12/15 08:39:47;;;;;;;20.13;9.43;;;;;;;-3.90;83.77;99953.94;5172372;28;20022;-74
2022/12/15 08:42:17;;;;;;;21.02;9.73;;;;;;;-3.84;87.07;99951.44;5163676;28;20073;-74
2022/12/15 08:44:49;;;;;;;20.55;10.10;;;;;;;-4.17;87.95;99961.25;5173446;28;20521;-75
2022/12/15 08:47:19;;;;;;;17.48;9.00;;;;;;;-4.45;90.64;99967.66;5168907;28;20041;-71
2022/12/15 08:49:50;;;;;;;20.48;9.70;;;;;;;-4.46;92.39;99968.50;5167352;28;20025;-74
2022/12/15 08:52:21;;;;;;;18.85;8.90;;;;;;;-4.19;92.58;99968.03;5170753;28;20152;-75
2022/12/15 08:54:52;;;;;;;23.23;10.07;;;;;;;-4.15;93.92;99969.78;5170112;28;20583;-74
2022/12/15 08:57:22;;;;;;;21.98;9.93;;;;;;;-4.22;92.98;99962.88;5170900;28;20087;-74
2022/12/15 08:59:53;;;;;;;19.00;9.50;;;;;;;-4.10;93.58;99970.69;5170154;28;20538;-74
2022/12/15 09:02:23;;;;;;;18.27;9.07;;;;;;;-3.95;93.59;99970.91;5176079;28;20029;-75
2022/12/15 09:04:53;;;;;;;19.70;9.70;;;;;;;-4.07;94.10;99965.63;5176268;28;20104;-74
2022/12/15 09:07:23;;;;;;;21.30;10.27;;;;;;;-3.96;94.96;99958.97;5174852;28;20040;-73
2022/12/15 09:09:54;;;;;;;22.05;10.10;;;;;;;-3.71;96.33;99955.84;5173959;28;20049;-74
2022/12/15 09:12:24;;;;;;;24.98;10.65;;;;;;;-3.73;94.67;99962.63;5168417;28;20026;-74
2022/12/15 09:14:54;;;;;;;21.10;10.48;;;;;;;-3.85;97.23;99971.00;5173113;28;20487;-73
2022/12/15 09:17:25;;;;;;;21.70;11.02;;;;;;;-3.77;99.32;99966.00;5171589;28;20085;-75
2022/12/15 09:19:55;;;;;;;20.13;10.98;;;;;;;-3.57;99.74;99980.69;5168727;28;20033;-74
2022/12/15 09:22:25;;;;;;;22.65;10.55;;;;;;;-3.55;99.44;99974.75;5170996;28;20126;-75
2022/12/15 09:24:55;;;;;;;23.35;11.27;;;;;;;-3.30;100.00;99973.31;5168946;28;20034;-75
2022/12/15 09:27:27;;;;;;;24.67;11.25;;;;;;;-3.33;100.00;99966.47;5170898;28;20222;-74
2022/12/15 09:29:58;;;;;;;22.60;11.15;;;;;;;-3.28;100.00;99969.06;5170678;28;20030;-74
2022/12/15 09:32:28;;;;;;;23.77;11.35;;;;;;;-3.20;100.00;99968.28;5171911;28;20420;-73
2022/12/15 09:34:58;;;;;;;19.80;10.77;;;;;;;-3.02;100.00;99980.38;5163984;28;20100;-75
2022/12/15 09:37:29;;;;;;;21.52;11.10;;;;;;;-2.86;100.00;99980.50;5171025;28;20607;-75
2022/12/15 09:40:00;;;;;;;26.92;12.13;;;;;;;-2.54;100.00;99978.22;5172862;28;20030;-74
2022/12/15 09:42:30;;;;;;;22.48;11.38;;;;;;;-2.31;100.00;99980.03;5167201;28;20037;-74
2022/12/15 09:45:07;;;;;;;24.88;11.85;;;;;;;-2.13;100.00;99981.84;5172131;28;20555;-74
2022/12/15 09:48:00;;;;;;;22.83;11.80;;;;;;;-2.02;100.00;99991.28;5169953;28;20038;-75
2022/12/15 09:50:39;;;;;;;23.98;10.82;;;;;;;-1.85;100.00;100005.03;5168791;28;20030;-74
2022/12/15 09:53:14;;;;;;;22.60;11.73;;;;;;;-1.71;100.00;100003.38;5171276;28;20022;-73
2022/12/15 09:55:47;;;;;;;21.27;11.45;;;;;;;-1.61;100.00;100005.13;5173981;28;20101;-74
2022/12/15 09:58:39;;;;;;;23.58;11.05;;;;;;;-1.47;100.00;100003.44;5172335;28;20022;-76
2022/12/15 10:01:43;;;;;;;24.80;11.63;;;;;;;-1.46;100.00;99997.47;5171863;28;20533;-76
2022/12/15 10:04:29;;;;;;;22.00;11.38;;;;;;;-1.55;100.00;99997.47;5173435;28;20468;-74
2022/12/15 10:07:04;;;;;;;;;;;;;;;-1.59;100.00;99993.19;5172049;28;20022;-75
2022/12/15 10:09:36;;;;;;;25.90;11.00;;;;;;;-1.54;100.00;99999.19;5172118;28;19918;-74
2022/12/15 10:12:15;;;;;;;21.35;11.50;;;;;;;-1.37;100.00;99994.94;5165738;28;20038;-74
2022/12/15 10:14:52;;;;;;;25.17;12.57;;;;;;;-1.39;100.00;99996.66;5170668;28;20567;-75
2022/12/15 10:17:24;;;;;;;25.83;12.55;;;;;;;-1.29;100.00;99998.38;5169460;28;20387;-73
2022/12/15 10:20:06;;;;;;;20.45;10.63;;;;;;;-1.05;100.00;99996.72;5170458;28;20053;-75
2022/12/15 10:22:36;;;;;;;24.60;10.55;;;;;;;-0.79;100.00;100000.16;5169866;28;20029;-73
2022/12/15 10:25:19;;;;;;;22.15;11.00;;;;;;;-0.86;100.00;100000.16;5169662;28;20029;-73
2022/12/15 10:28:06;;;;;;;20.75;10.82;;;;;;;-0.65;100.00;99997.59;5169638;28;20030;-76
2022/12/15 10:30:47;;;;;;;26.63;12.25;;;;;;;-0.85;100.00;100002.75;5170401;28;20513;-74
2022/12/15 10:33:21;;;;;;;19.98;10.80;;;;;;;-0.77;100.00;100006.16;5168638;28;20395;-76
2022/12/15 10:35:53;;;;;;;24.30;11.63;;;;;;;-0.68;100.00;100006.16;5169406;28;20022;-73
2022/12/15 10:38:33;;;;;;;20.08;10.55;;;;;;;-0.52;100.00;100009.56;5169775;28;20502;-74
2022/12/15 10:41:07;;;;;;;26.20;9.80;;;;;;;-0.56;100.00;100016.41;5171634;28;20031;-74
2022/12/15 10:43:43;;;;;;;20.20;10.40;;;;;;;-0.62;99.94;100006.16;5170461;28;20026;-74
2022/12/15 10:46:22;;;;;;;16.38;9.30;;;;;;;-0.51;100.00;100013.84;5171959;28;20029;-74
2022/12/15 10:48:59;;;;;;;23.00;11.10;;;;;;;-0.56;99.52;100018.13;5170014;28;20505;-74
2022/12/15 10:51:35;;;;;;;20.30;10.13;;;;;;;-0.42;99.68;100013.84;5170068;28;20103;-74
2022/12/15 10:54:08;;;;;;;23.25;10.45;;;;;;;-0.34;99.73;100020.69;5169922;28;20038;-75
2022/12/15 10:56:53;;;;;;;21.27;11.13;;;;;;;-0.15;100.00;100018.91;5166541;28;20404;-74
2022/12/15 10:59:33;;;;;;;22.90;10.52;;;;;;;-0.29;98.15;100025.78;5171646;28;20034;-74
2022/12/15 11:02:35;;;;;;;20.48;10.23;;;;;;;-0.32;99.63;100018.97;5171005;28;20056;-75
2022/12/15 11:05:14;;;;;;;19.33;10.02;;;;;;;-0.31;98.83;100022.38;5166930;28;20034;-73
2022/12/15 11:07:55;;;;;;;18.75;9.27;;;;;;;-0.24;99.32;100021.53;5168740;28;20057;-76
2022/12/15 11:13:22;;;;;;;18.67;9.30;;;;;;;0.05;99.45;100013.72;5172316;28;20072;-74
2022/12/15 11:15:55;;;;;;;19.40;9.60;;;;;;;0.04;99.27;100011.19;5165650;28;20105;-75
2022/12/15 11:18:31;;;;;;;21.08;9.48;;;;;;;0.23;99.65;100007.69;5172587;28;20430;-74
2022/12/15 11:21:08;;;;;;;20.25;9.52;;;;;;;0.28;100.00;100011.97;5172250;28;20081;-75
2022/12/15 11:24:07;;;;;;;22.30;9.75;;;;;;;0.31;98.93;100017.06;5166923;28;20061;-76
2022/12/15 11:27:25;;;;;;;23.02;9.45;;;;;;;0.24;99.49;99999.97;5172820;28;20021;-75
2022/12/15 11:30:21;;;;;;;18.88;9.02;;;;;;;0.23;100.00;100005.97;5148357;28;20077;-76
2022/12/15 11:32:56;;;;;;;20.83;9.53;;;;;;;0.22;98.77;99996.53;5171252;28;20028;-74
2022/12/15 11:35:45;;;;;;;19.98;9.85;;;;;;;0.15;99.24;99994.88;5166820;28;20395;-74
2022/12/15 11:38:24;;;;;;;20.20;9.82;;;;;;;0.12;98.98;100004.28;5168789;28;20033;-74
2022/12/15 11:41:02;;;;;;;18.70;9.48;;;;;;;0.23;97.99;99997.41;5169147;28;20026;-76
2022/12/15 11:43:38;;;;;;;18.90;8.70;;;;;;;0.28;97.10;100006.81;5169041;28;20053;-76
2022/12/15 11:46:20;;;;;;;17.40;8.82;;;;;;;0.26;97.46;100000.84;5174473;28;20025;-74
2022/12/15 11:48:59;;;;;;;20.42;9.38;;;;;;;0.22;98.05;100001.69;5167746;28;20029;-74
2022/12/15 11:52:15;;;;;;;18.65;9.07;;;;;;;0.13;98.10;100012.00;5172371;28;20092;-74
2022/12/15 11:54:58;;;;;;;17.38;8.55;;;;;;;0.12;98.04;100015.44;5146447;28;20137;-72
2022/12/15 11:58:01;;;;;;;18.38;9.23;;;;;;;0.01;98.69;100009.47;5168970;28;20029;-76
2022/12/15 12:00:41;;;;;;;24.13;10.05;;;;;;;0.07;99.87;100009.44;5171253;28;20100;-75
2022/12/15 12:03:12;;;;;;;20.42;10.02;;;;;;;0.11;99.27;100013.72;5169464;28;20056;-75
2022/12/15 12:06:06;;;;;;;23.13;9.40;;;;;;;0.21;98.17;100007.69;5170562;28;20034;-75
2022/12/15 12:09:02;;;;;;;21.20;10.07;;;;;;;0.28;97.34;100005.94;5168300;28;20489;-74
2022/12/15 12:11:54;;;;;;;23.40;11.10;;;;;;;0.21;98.77;100007.69;5169300;28;20037;-74
2022/12/15 12:14:46;;;;;;;22.10;9.93;;;;;;;0.33;99.44;100004.22;5171296;28;20574;-74
2022/12/15 12:17:31;;;;;;;25.20;10.35;;;;;;;0.55;98.88;99998.13;5172067;28;20036;-74
2022/12/15 12:20:13;;;;;;;22.80;9.13;;;;;;;0.68;97.40;99989.47;5168438;28;20560;-74
2022/12/15 12:22:56;;;;;;;17.38;8.77;;;;;;;0.52;96.40;99990.44;5170697;28;20115;-75
2022/12/15 12:25:29;;;;;;;21.05;9.15;;;;;;;0.64;97.40;99983.50;5171084;28;20022;-75
2022/12/15 12:28:22;;;;;;;21.67;9.25;;;;;;;0.41;97.04;99992.19;5168086;28;20084;-75
2022/12/15 12:30:56;;;;;;;21.85;8.88;;;;;;;0.49;99.02;99991.31;5168974;28;20037;-74
2022/12/15 12:33:29;;;;;;;20.73;9.13;;;;;;;0.49;97.89;100001.59;5166708;28;20442;-74
2022/12/15 12:36:09;;;;;;;22.17;9.63;;;;;;;0.45;98.79;99999.91;5172800;28;20049;-74
2022/12/15 12:38:45;;;;;;;20.48;9.52;;;;;;;0.63;99.56;100007.50;5171496;28;20543;-75
2022/12/15 12:41:39;;;;;;;18.75;8.38;;;;;;;0.79;98.71;100006.56;5175524;28;20034;-74
2022/12/15 12:44:31;;;;;;;20.48;8.85;;;;;;;0.58;97.79;100005.81;5174967;28;20022;-74
2022/12/15 12:47:21;;;;;;;21.55;9.57;;;;;;;0.56;98.20;100007.53;5176362;28;20061;-74
2022/12/15 12:49:59;;;;;;;17.42;8.95;;;;;;;0.38;98.53;100003.34;5167337;28;20138;-74
2022/12/15 12:52:36;;;;;;;20.10;9.63;;;;;;;0.31;99.55;100009.38;5196690;22;20038;-72
2022/12/15 12:55:12;;;;;;;17.38;8.57;;;;;;;0.33;99.71;100007.66;5171185;28;20068;-72
2022/12/15 12:57:44;;;;;;;17.75;7.72;;;;;;;0.53;97.50;100000.69;5170581;28;20046;-72
2022/12/15 13:00:19;;;;;;;17.55;7.93;;;;;;;0.44;97.37;100000.75;5172161;28;20033;-72
2022/12/15 13:03:15;;;;;;;20.05;8.32;;;;;;;0.31;98.19;99999.09;5160778;28;20033;-72
2022/12/15 13:05:48;;;;;;;20.58;8.45;;;;;;;0.38;98.83;100003.34;5150846;28;20037;-72
2022/12/15 13:08:45;;;;;;;17.88;8.30;;;;;;;0.37;99.04;99993.91;5151323;28;20042;-73
2022/12/15 13:11:47;;;;;;;16.48;7.85;;;;;;;0.59;98.18;99998.09;5149253;28;20029;-72
2022/12/15 13:14:27;;;;;;;15.18;7.55;;;;;;;0.49;97.39;99990.44;5149506;28;20026;-72
2022/12/15 13:17:28;;;;;;;18.83;8.18;;;;;;;0.48;98.38;99992.16;5153723;28;20031;-73
2022/12/15 13:19:58;;;;;;;17.70;8.65;;;;;;;0.41;98.57;99995.59;5148581;28;20105;-72
2022/12/15 13:22:37;;;;;;;24.00;10.50;;;;;;;0.35;98.69;99987.94;5152486;28;20057;-73
2022/12/15 13:25:41;;;;;;;26.10;10.70;;;;;;;0.27;97.99;99989.69;5152140;28;20042;-71
2022/12/15 13:28:37;;;;;;;25.83;10.95;;;;;;;0.27;98.20;99997.41;5123478;28;20043;-72
2022/12/15 13:31:20;;;;;;;;;;;;;;;0.34;98.58;99993.06;5152153;28;20038;-72
2022/12/15 13:33:54;;;;;;;27.63;11.98;;;;;;;0.26;98.21;100000.84;5145601;28;19949;-72
2022/12/15 13:36:40;;;;;;;34.83;13.50;;;;;;;0.27;98.29;99994.84;5147163;28;20441;-72
2022/12/15 13:39:13;;;;;;;36.28;14.45;;;;;;;0.19;99.23;99991.44;5149518;28;20515;-72
2022/12/15 13:42:03;;;;;;;22.88;10.60;;;;;;;0.32;99.59;99987.97;5150282;28;20502;-72
2022/12/15 13:44:33;;;;;;;26.92;10.68;;;;;;;0.38;98.83;99998.19;5153732;28;20542;-72
2022/12/15 13:47:15;;;;;;;26.00;10.93;;;;;;;0.25;99.44;99993.97;5148840;28;20030;-72
2022/12/15 13:49:58;;;;;;;21.70;10.65;;;;;;;0.29;100.00;99992.25;5149602;28;20113;-72
2022/12/15 13:52:37;;;;;;;24.48;10.48;;;;;;;0.06;100.00;99983.78;5152596;28;20034;-72
2022/12/15 13:55:18;;;;;;;21.80;9.27;;;;;;;-0.03;100.00;99998.34;5148555;28;20225;-72
2022/12/15 13:58:01;;;;;;;22.58;9.73;;;;;;;-0.11;100.00;99994.94;5151527;28;20042;-72
2022/12/15 14:00:31;;;;;;;27.20;9.88;;;;;;;0.14;100.00;99992.28;5151885;28;20084;-73
2022/12/15 14:03:09;;;;;;;19.25;8.82;;;;;;;-0.05;100.00;99994.94;5149675;28;20439;-72
2022/12/15 14:05:41;;;;;;;21.45;9.60;;;;;;;-0.20;100.00;99993.25;5150826;28;20507;-72
2022/12/15 14:08:14;;;;;;;22.55;9.15;;;;;;;-0.26;100.00;99995.84;5149607;28;20384;-71
2022/12/15 14:10:54;;;;;;;18.88;8.40;;;;;;;-0.32;100.00;99995.88;5156962;28;20030;-72
2022/12/15 14:13:35;;;;;;;20.65;9.30;;;;;;;-0.41;100.00;99998.44;5149469;28;20033;-72
2022/12/15 14:16:19;;;;;;;25.80;9.20;;;;;;;-0.47;100.00;100005.28;5150671;28;20523;-71
2022/12/15 14:19:12;;;;;;;18.02;8.23;;;;;;;-0.53;100.00;100000.16;5149326;28;20535;-72
2022/12/15 14:21:55;;;;;;;19.98;9.05;;;;;;;-0.61;100.00;99992.47;5150897;28;20682;-72
2022/12/15 14:24:31;;;;;;;18.27;9.00;;;;;;;-0.67;100.00;99987.34;5150194;28;20358;-72